sensor_id;sensor_type;location;lat;lon;timestamp;pressure;altitude;pressure_sealevel;temperature
10058;BMP180;5068;51.286;7.518;2023-07-08T00:00:14;99605.00;;;18.40
10058;BMP180;5068;51.286;7.518;2023-07-08T00:01:54;99603.00;;;18.40
10058;BMP180;5068;51.286;7.518;2023-07-08T00:03:28;99603.00;;;18.40
10058;BMP180;5068;51.286;7.518;2023-07-08T00:05:01;99602.00;;;18.50
10058;BMP180;5068;51.286;7.518;2023-07-08T00:06:35;99583.00;;;18.50
10058;BMP180;5068;51.286;7.518;2023-07-08T00:08:12;99588.00;;;18.50
10058;BMP180;5068;51.286;7.518;2023-07-08T00:09:45;99595.00;;;18.50
10058;BMP180;5068;51.286;7.518;2023-07-08T00:11:18;99599.00;;;18.50
10058;BMP180;5068;51.286;7.518;2023-07-08T00:12:55;99587.00;;;18.50
10058;BMP180;5068;51.286;7.518;2023-07-08T00:14:28;99596.00;;;18.50
10058;BMP180;5068;51.286;7.518;2023-07-08T00:16:01;99593.00;;;18.50
10058;BMP180;5068;51.286;7.518;2023-07-08T00:17:34;99585.00;;;18.50
10058;BMP180;5068;51.286;7.518;2023-07-08T00:19:10;99591.00;;;18.50
10058;BMP180;5068;51.286;7.518;2023-07-08T00:20:46;99585.00;;;18.60
10058;BMP180;5068;51.286;7.518;2023-07-08T00:22:20;99580.00;;;18.60
10058;BMP180;5068;51.286;7.518;2023-07-08T00:23:53;99586.00;;;18.60
10058;BMP180;5068;51.286;7.518;2023-07-08T00:25:28;99589.00;;;18.60
10058;BMP180;5068;51.286;7.518;2023-07-08T00:27:01;99573.00;;;18.60
10058;BMP180;5068;51.286;7.518;2023-07-08T00:28:36;99591.00;;;18.60
10058;BMP180;5068;51.286;7.518;2023-07-08T00:30:21;99588.00;;;18.60
10058;BMP180;5068;51.286;7.518;2023-07-08T00:31:56;99576.00;;;18.60
10058;BMP180;5068;51.286;7.518;2023-07-08T00:33:28;99584.00;;;18.60
10058;BMP180;5068;51.286;7.518;2023-07-08T00:35:02;99585.00;;;18.60
10058;BMP180;5068;51.286;7.518;2023-07-08T00:36:35;99586.00;;;18.60
10058;BMP180;5068;51.286;7.518;2023-07-08T00:38:15;99577.00;;;18.60
10058;BMP180;5068;51.286;7.518;2023-07-08T00:39:51;99578.00;;;18.60
10058;BMP180;5068;51.286;7.518;2023-07-08T00:41:29;99572.00;;;18.60
10058;BMP180;5068;51.286;7.518;2023-07-08T00:43:06;99566.00;;;18.60
10058;BMP180;5068;51.286;7.518;2023-07-08T00:44:44;99573.00;;;18.50
10058;BMP180;5068;51.286;7.518;2023-07-08T00:46:42;99580.00;;;18.50
10058;BMP180;5068;51.286;7.518;2023-07-08T00:48:24;99576.00;;;18.50
10058;BMP180;5068;51.286;7.518;2023-07-08T00:50:02;99569.00;;;18.50
10058;BMP180;5068;51.286;7.518;2023-07-08T00:51:39;99580.00;;;18.50
10058;BMP180;5068;51.286;7.518;2023-07-08T00:53:28;99582.00;;;18.50
10058;BMP180;5068;51.286;7.518;2023-07-08T00:55:08;99574.00;;;18.40
10058;BMP180;5068;51.286;7.518;2023-07-08T00:56:47;99577.00;;;18.40
10058;BMP180;5068;51.286;7.518;2023-07-08T00:58:23;99572.00;;;18.40
10058;BMP180;5068;51.286;7.518;2023-07-08T01:00:04;99573.00;;;18.40
10058;BMP180;5068;51.286;7.518;2023-07-08T01:01:43;99575.00;;;18.40
10058;BMP180;5068;51.286;7.518;2023-07-08T01:03:18;99576.00;;;18.30
10058;BMP180;5068;51.286;7.518;2023-07-08T01:04:58;99564.00;;;18.30
10058;BMP180;5068;51.286;7.518;2023-07-08T01:06:36;99566.00;;;18.30
10058;BMP180;5068;51.286;7.518;2023-07-08T01:08:12;99571.00;;;18.30
10058;BMP180;5068;51.286;7.518;2023-07-08T01:09:52;99557.00;;;18.30
10058;BMP180;5068;51.286;7.518;2023-07-08T01:11:27;99560.00;;;18.30
10058;BMP180;5068;51.286;7.518;2023-07-08T01:13:05;99557.00;;;18.30
10058;BMP180;5068;51.286;7.518;2023-07-08T01:14:42;99535.00;;;18.20
10058;BMP180;5068;51.286;7.518;2023-07-08T01:16:17;99549.00;;;18.20
10058;BMP180;5068;51.286;7.518;2023-07-08T01:17:50;99542.00;;;18.20
10058;BMP180;5068;51.286;7.518;2023-07-08T01:19:27;99551.00;;;18.20
10058;BMP180;5068;51.286;7.518;2023-07-08T01:21:28;99553.00;;;18.20
10058;BMP180;5068;51.286;7.518;2023-07-08T01:23:03;99549.00;;;18.10
10058;BMP180;5068;51.286;7.518;2023-07-08T01:24:40;99532.00;;;18.10
10058;BMP180;5068;51.286;7.518;2023-07-08T01:26:14;99542.00;;;18.10
10058;BMP180;5068;51.286;7.518;2023-07-08T01:27:51;99538.00;;;18.10
10058;BMP180;5068;51.286;7.518;2023-07-08T01:29:25;99543.00;;;18.10
10058;BMP180;5068;51.286;7.518;2023-07-08T01:30:59;99539.00;;;18.10
10058;BMP180;5068;51.286;7.518;2023-07-08T01:32:44;99533.00;;;18.10
10058;BMP180;5068;51.286;7.518;2023-07-08T01:34:18;99530.00;;;18.00
10058;BMP180;5068;51.286;7.518;2023-07-08T01:35:52;99530.00;;;18.00
10058;BMP180;5068;51.286;7.518;2023-07-08T01:37:34;99531.00;;;18.00
10058;BMP180;5068;51.286;7.518;2023-07-08T01:39:11;99541.00;;;18.00
10058;BMP180;5068;51.286;7.518;2023-07-08T01:40:52;99537.00;;;18.00
10058;BMP180;5068;51.286;7.518;2023-07-08T01:42:24;99532.00;;;18.00
10058;BMP180;5068;51.286;7.518;2023-07-08T01:43:58;99533.00;;;18.00
10058;BMP180;5068;51.286;7.518;2023-07-08T01:45:37;99532.00;;;18.00
10058;BMP180;5068;51.286;7.518;2023-07-08T01:47:15;99527.00;;;18.00
10058;BMP180;5068;51.286;7.518;2023-07-08T01:48:55;99539.00;;;17.90
10058;BMP180;5068;51.286;7.518;2023-07-08T01:50:31;99529.00;;;17.90
10058;BMP180;5068;51.286;7.518;2023-07-08T01:52:07;99531.00;;;17.90
10058;BMP180;5068;51.286;7.518;2023-07-08T01:53:42;99528.00;;;17.90
10058;BMP180;5068;51.286;7.518;2023-07-08T01:55:21;99523.00;;;17.90
10058;BMP180;5068;51.286;7.518;2023-07-08T01:56:57;99531.00;;;17.90
10058;BMP180;5068;51.286;7.518;2023-07-08T01:58:31;99520.00;;;17.80
10058;BMP180;5068;51.286;7.518;2023-07-08T02:00:08;99527.00;;;17.80
10058;BMP180;5068;51.286;7.518;2023-07-08T02:01:48;99522.00;;;17.80
10058;BMP180;5068;51.286;7.518;2023-07-08T02:03:23;99528.00;;;17.80
10058;BMP180;5068;51.286;7.518;2023-07-08T02:04:58;99518.00;;;17.80
10058;BMP180;5068;51.286;7.518;2023-07-08T02:06:30;99513.00;;;17.80
10058;BMP180;5068;51.286;7.518;2023-07-08T02:08:11;99511.00;;;17.80
10058;BMP180;5068;51.286;7.518;2023-07-08T02:09:44;99521.00;;;17.80
10058;BMP180;5068;51.286;7.518;2023-07-08T02:11:18;99513.00;;;17.80
10058;BMP180;5068;51.286;7.518;2023-07-08T02:12:53;99509.00;;;17.80
10058;BMP180;5068;51.286;7.518;2023-07-08T02:14:25;99513.00;;;17.80
10058;BMP180;5068;51.286;7.518;2023-07-08T02:15:59;99507.00;;;17.70
10058;BMP180;5068;51.286;7.518;2023-07-08T02:17:33;99510.00;;;17.70
10058;BMP180;5068;51.286;7.518;2023-07-08T02:19:07;99512.00;;;17.70
10058;BMP180;5068;51.286;7.518;2023-07-08T02:20:43;99518.00;;;17.70
10058;BMP180;5068;51.286;7.518;2023-07-08T02:22:16;99515.00;;;17.70
10058;BMP180;5068;51.286;7.518;2023-07-08T02:23:50;99508.00;;;17.70
10058;BMP180;5068;51.286;7.518;2023-07-08T02:25:25;99514.00;;;17.70
10058;BMP180;5068;51.286;7.518;2023-07-08T02:27:00;99507.00;;;17.60
10058;BMP180;5068;51.286;7.518;2023-07-08T02:28:32;99504.00;;;17.60
10058;BMP180;5068;51.286;7.518;2023-07-08T02:30:07;99495.00;;;17.60
10058;BMP180;5068;51.286;7.518;2023-07-08T02:31:40;99509.00;;;17.60
10058;BMP180;5068;51.286;7.518;2023-07-08T02:33:14;99504.00;;;17.60
10058;BMP180;5068;51.286;7.518;2023-07-08T02:34:49;99506.00;;;17.50
10058;BMP180;5068;51.286;7.518;2023-07-08T02:36:24;99498.00;;;17.50
10058;BMP180;5068;51.286;7.518;2023-07-08T02:37:58;99505.00;;;17.50
10058;BMP180;5068;51.286;7.518;2023-07-08T02:39:31;99504.00;;;17.50
10058;BMP180;5068;51.286;7.518;2023-07-08T02:41:04;99487.00;;;17.50
10058;BMP180;5068;51.286;7.518;2023-07-08T02:42:38;99497.00;;;17.50
10058;BMP180;5068;51.286;7.518;2023-07-08T02:44:11;99500.00;;;17.50
10058;BMP180;5068;51.286;7.518;2023-07-08T02:45:44;99502.00;;;17.50
10058;BMP180;5068;51.286;7.518;2023-07-08T02:47:17;99496.00;;;17.50
10058;BMP180;5068;51.286;7.518;2023-07-08T02:48:50;99501.00;;;17.50
10058;BMP180;5068;51.286;7.518;2023-07-08T02:50:23;99500.00;;;17.40
10058;BMP180;5068;51.286;7.518;2023-07-08T02:51:57;99496.00;;;17.40
10058;BMP180;5068;51.286;7.518;2023-07-08T02:53:30;99504.00;;;17.40
10058;BMP180;5068;51.286;7.518;2023-07-08T02:55:05;99512.00;;;17.30
10058;BMP180;5068;51.286;7.518;2023-07-08T02:56:38;99520.00;;;17.30
10058;BMP180;5068;51.286;7.518;2023-07-08T02:58:13;99511.00;;;17.30
10058;BMP180;5068;51.286;7.518;2023-07-08T02:59:45;99494.00;;;17.20
10058;BMP180;5068;51.286;7.518;2023-07-08T03:01:22;99507.00;;;17.20
10058;BMP180;5068;51.286;7.518;2023-07-08T03:02:55;99505.00;;;17.20
10058;BMP180;5068;51.286;7.518;2023-07-08T03:04:31;99509.00;;;17.10
10058;BMP180;5068;51.286;7.518;2023-07-08T03:06:05;99514.00;;;17.10
10058;BMP180;5068;51.286;7.518;2023-07-08T03:07:37;99516.00;;;17.10
10058;BMP180;5068;51.286;7.518;2023-07-08T03:09:12;99513.00;;;17.00
10058;BMP180;5068;51.286;7.518;2023-07-08T03:10:47;99506.00;;;17.00
10058;BMP180;5068;51.286;7.518;2023-07-08T03:12:21;99516.00;;;17.00
10058;BMP180;5068;51.286;7.518;2023-07-08T03:13:55;99514.00;;;17.00
10058;BMP180;5068;51.286;7.518;2023-07-08T03:15:29;99503.00;;;16.90
10058;BMP180;5068;51.286;7.518;2023-07-08T03:17:01;99506.00;;;16.90
10058;BMP180;5068;51.286;7.518;2023-07-08T03:18:35;99507.00;;;16.90
10058;BMP180;5068;51.286;7.518;2023-07-08T03:20:11;99503.00;;;16.90
10058;BMP180;5068;51.286;7.518;2023-07-08T03:21:45;99503.00;;;16.90
10058;BMP180;5068;51.286;7.518;2023-07-08T03:23:17;99498.00;;;16.90
10058;BMP180;5068;51.286;7.518;2023-07-08T03:24:51;99498.00;;;16.90
10058;BMP180;5068;51.286;7.518;2023-07-08T03:26:26;99502.00;;;16.90
10058;BMP180;5068;51.286;7.518;2023-07-08T03:28:03;99499.00;;;16.80
10058;BMP180;5068;51.286;7.518;2023-07-08T03:29:39;99504.00;;;16.80
10058;BMP180;5068;51.286;7.518;2023-07-08T03:31:13;99502.00;;;16.80
10058;BMP180;5068;51.286;7.518;2023-07-08T03:32:46;99497.00;;;16.70
10058;BMP180;5068;51.286;7.518;2023-07-08T03:34:19;99499.00;;;16.70
10058;BMP180;5068;51.286;7.518;2023-07-08T03:35:55;99496.00;;;16.70
10058;BMP180;5068;51.286;7.518;2023-07-08T03:37:29;99499.00;;;16.70
10058;BMP180;5068;51.286;7.518;2023-07-08T03:39:03;99495.00;;;16.70
10058;BMP180;5068;51.286;7.518;2023-07-08T03:40:35;99506.00;;;16.60
10058;BMP180;5068;51.286;7.518;2023-07-08T03:42:09;99503.00;;;16.60
10058;BMP180;5068;51.286;7.518;2023-07-08T03:43:42;99504.00;;;16.60
10058;BMP180;5068;51.286;7.518;2023-07-08T03:45:19;99496.00;;;16.60
10058;BMP180;5068;51.286;7.518;2023-07-08T03:46:53;99510.00;;;16.60
10058;BMP180;5068;51.286;7.518;2023-07-08T03:48:26;99510.00;;;16.50
10058;BMP180;5068;51.286;7.518;2023-07-08T03:49:59;99527.00;;;16.50
10058;BMP180;5068;51.286;7.518;2023-07-08T03:51:36;99514.00;;;16.50
10058;BMP180;5068;51.286;7.518;2023-07-08T03:53:10;99530.00;;;16.50
10058;BMP180;5068;51.286;7.518;2023-07-08T03:54:44;99521.00;;;16.50
10058;BMP180;5068;51.286;7.518;2023-07-08T03:56:16;99525.00;;;16.50
10058;BMP180;5068;51.286;7.518;2023-07-08T03:57:50;99516.00;;;16.50
10058;BMP180;5068;51.286;7.518;2023-07-08T03:59:22;99528.00;;;16.40
10058;BMP180;5068;51.286;7.518;2023-07-08T04:00:59;99525.00;;;16.40
10058;BMP180;5068;51.286;7.518;2023-07-08T04:02:32;99522.00;;;16.40
10058;BMP180;5068;51.286;7.518;2023-07-08T04:04:05;99518.00;;;16.40
10058;BMP180;5068;51.286;7.518;2023-07-08T04:05:40;99522.00;;;16.40
10058;BMP180;5068;51.286;7.518;2023-07-08T04:07:13;99520.00;;;16.40
10058;BMP180;5068;51.286;7.518;2023-07-08T04:08:47;99519.00;;;16.40
10058;BMP180;5068;51.286;7.518;2023-07-08T04:10:19;99522.00;;;16.40
10058;BMP180;5068;51.286;7.518;2023-07-08T04:11:53;99531.00;;;16.30
10058;BMP180;5068;51.286;7.518;2023-07-08T04:13:26;99522.00;;;16.30
10058;BMP180;5068;51.286;7.518;2023-07-08T04:15:00;99524.00;;;16.30
10058;BMP180;5068;51.286;7.518;2023-07-08T04:16:50;99530.00;;;16.30
10058;BMP180;5068;51.286;7.518;2023-07-08T04:18:25;99531.00;;;16.30
10058;BMP180;5068;51.286;7.518;2023-07-08T04:19:57;99529.00;;;16.30
10058;BMP180;5068;51.286;7.518;2023-07-08T04:21:35;99533.00;;;16.30
10058;BMP180;5068;51.286;7.518;2023-07-08T04:23:07;99532.00;;;16.30
10058;BMP180;5068;51.286;7.518;2023-07-08T04:24:41;99534.00;;;16.30
10058;BMP180;5068;51.286;7.518;2023-07-08T04:26:14;99532.00;;;16.30
10058;BMP180;5068;51.286;7.518;2023-07-08T04:27:48;99521.00;;;16.30
10058;BMP180;5068;51.286;7.518;2023-07-08T04:29:22;99535.00;;;16.30
10058;BMP180;5068;51.286;7.518;2023-07-08T04:30:56;99538.00;;;16.30
10058;BMP180;5068;51.286;7.518;2023-07-08T04:32:32;99537.00;;;16.30
10058;BMP180;5068;51.286;7.518;2023-07-08T04:34:05;99529.00;;;16.30
10058;BMP180;5068;51.286;7.518;2023-07-08T04:35:41;99532.00;;;16.30
10058;BMP180;5068;51.286;7.518;2023-07-08T04:37:13;99535.00;;;16.30
10058;BMP180;5068;51.286;7.518;2023-07-08T04:38:47;99532.00;;;16.30
10058;BMP180;5068;51.286;7.518;2023-07-08T04:40:20;99534.00;;;16.30
10058;BMP180;5068;51.286;7.518;2023-07-08T04:41:54;99541.00;;;16.30
10058;BMP180;5068;51.286;7.518;2023-07-08T04:43:26;99544.00;;;16.30
10058;BMP180;5068;51.286;7.518;2023-07-08T04:45:01;99550.00;;;16.30
10058;BMP180;5068;51.286;7.518;2023-07-08T04:46:42;99545.00;;;16.30
10058;BMP180;5068;51.286;7.518;2023-07-08T04:48:18;99546.00;;;16.30
10058;BMP180;5068;51.286;7.518;2023-07-08T04:49:53;99534.00;;;16.30
10058;BMP180;5068;51.286;7.518;2023-07-08T04:51:25;99546.00;;;16.30
10058;BMP180;5068;51.286;7.518;2023-07-08T04:52:59;99552.00;;;16.30
10058;BMP180;5068;51.286;7.518;2023-07-08T04:54:32;99544.00;;;16.40
10058;BMP180;5068;51.286;7.518;2023-07-08T04:56:05;99534.00;;;16.40
10058;BMP180;5068;51.286;7.518;2023-07-08T04:57:38;99539.00;;;16.40
10058;BMP180;5068;51.286;7.518;2023-07-08T04:59:15;99538.00;;;16.50
10058;BMP180;5068;51.286;7.518;2023-07-08T05:00:50;99536.00;;;16.50
10058;BMP180;5068;51.286;7.518;2023-07-08T05:02:23;99531.00;;;16.50
10058;BMP180;5068;51.286;7.518;2023-07-08T05:03:57;99539.00;;;16.50
10058;BMP180;5068;51.286;7.518;2023-07-08T05:05:31;99533.00;;;16.60
10058;BMP180;5068;51.286;7.518;2023-07-08T05:07:04;99522.00;;;16.60
10058;BMP180;5068;51.286;7.518;2023-07-08T05:08:37;99526.00;;;16.60
10058;BMP180;5068;51.286;7.518;2023-07-08T05:10:10;99541.00;;;16.60
10058;BMP180;5068;51.286;7.518;2023-07-08T05:11:44;99533.00;;;16.60
10058;BMP180;5068;51.286;7.518;2023-07-08T05:13:17;99533.00;;;16.70
10058;BMP180;5068;51.286;7.518;2023-07-08T05:14:51;99523.00;;;16.70
10058;BMP180;5068;51.286;7.518;2023-07-08T05:16:25;99531.00;;;16.70
10058;BMP180;5068;51.286;7.518;2023-07-08T05:17:57;99530.00;;;16.80
10058;BMP180;5068;51.286;7.518;2023-07-08T05:19:32;99541.00;;;16.80
10058;BMP180;5068;51.286;7.518;2023-07-08T05:21:05;99529.00;;;16.90
10058;BMP180;5068;51.286;7.518;2023-07-08T05:22:40;99538.00;;;16.90
10058;BMP180;5068;51.286;7.518;2023-07-08T05:24:15;99541.00;;;17.00
10058;BMP180;5068;51.286;7.518;2023-07-08T05:25:48;99538.00;;;17.00
10058;BMP180;5068;51.286;7.518;2023-07-08T05:27:21;99534.00;;;17.10
10058;BMP180;5068;51.286;7.518;2023-07-08T05:28:54;99537.00;;;17.10
10058;BMP180;5068;51.286;7.518;2023-07-08T05:30:28;99535.00;;;17.20
10058;BMP180;5068;51.286;7.518;2023-07-08T05:32:02;99522.00;;;17.30
10058;BMP180;5068;51.286;7.518;2023-07-08T05:33:34;99524.00;;;17.30
10058;BMP180;5068;51.286;7.518;2023-07-08T05:35:09;99524.00;;;17.40
10058;BMP180;5068;51.286;7.518;2023-07-08T05:36:43;99519.00;;;17.50
10058;BMP180;5068;51.286;7.518;2023-07-08T05:38:16;99519.00;;;17.60
10058;BMP180;5068;51.286;7.518;2023-07-08T05:39:50;99517.00;;;17.60
10058;BMP180;5068;51.286;7.518;2023-07-08T05:41:23;99521.00;;;17.70
10058;BMP180;5068;51.286;7.518;2023-07-08T05:42:56;99524.00;;;17.80
10058;BMP180;5068;51.286;7.518;2023-07-08T05:44:30;99527.00;;;17.80
10058;BMP180;5068;51.286;7.518;2023-07-08T05:46:03;99526.00;;;17.90
10058;BMP180;5068;51.286;7.518;2023-07-08T05:47:44;99528.00;;;18.00
10058;BMP180;5068;51.286;7.518;2023-07-08T05:49:17;99517.00;;;18.00
10058;BMP180;5068;51.286;7.518;2023-07-08T05:50:52;99523.00;;;18.10
10058;BMP180;5068;51.286;7.518;2023-07-08T05:52:25;99516.00;;;18.10
10058;BMP180;5068;51.286;7.518;2023-07-08T05:53:58;99519.00;;;18.20
10058;BMP180;5068;51.286;7.518;2023-07-08T05:55:31;99525.00;;;18.30
10058;BMP180;5068;51.286;7.518;2023-07-08T05:57:07;99522.00;;;18.30
10058;BMP180;5068;51.286;7.518;2023-07-08T05:58:40;99510.00;;;18.40
10058;BMP180;5068;51.286;7.518;2023-07-08T06:00:14;99508.00;;;18.50
10058;BMP180;5068;51.286;7.518;2023-07-08T06:02:06;99512.00;;;18.60
10058;BMP180;5068;51.286;7.518;2023-07-08T06:03:42;99506.00;;;18.60
10058;BMP180;5068;51.286;7.518;2023-07-08T06:05:15;99510.00;;;18.70
10058;BMP180;5068;51.286;7.518;2023-07-08T06:06:49;99514.00;;;18.80
10058;BMP180;5068;51.286;7.518;2023-07-08T06:08:23;99516.00;;;18.90
10058;BMP180;5068;51.286;7.518;2023-07-08T06:09:55;99513.00;;;18.90
10058;BMP180;5068;51.286;7.518;2023-07-08T06:11:29;99506.00;;;19.00
10058;BMP180;5068;51.286;7.518;2023-07-08T06:13:06;99501.00;;;19.10
10058;BMP180;5068;51.286;7.518;2023-07-08T06:14:39;99506.00;;;19.10
10058;BMP180;5068;51.286;7.518;2023-07-08T06:16:16;99505.00;;;19.20
10058;BMP180;5068;51.286;7.518;2023-07-08T06:18:02;99506.00;;;19.30
10058;BMP180;5068;51.286;7.518;2023-07-08T06:19:36;99508.00;;;19.30
10058;BMP180;5068;51.286;7.518;2023-07-08T06:21:09;99506.00;;;19.40
10058;BMP180;5068;51.286;7.518;2023-07-08T06:22:43;99506.00;;;19.50
10058;BMP180;5068;51.286;7.518;2023-07-08T06:24:20;99503.00;;;19.60
10058;BMP180;5068;51.286;7.518;2023-07-08T06:25:53;99504.00;;;19.60
10058;BMP180;5068;51.286;7.518;2023-07-08T06:27:26;99502.00;;;19.70
10058;BMP180;5068;51.286;7.518;2023-07-08T06:28:59;99507.00;;;19.80
10058;BMP180;5068;51.286;7.518;2023-07-08T06:30:32;99504.00;;;19.90
10058;BMP180;5068;51.286;7.518;2023-07-08T06:32:08;99514.00;;;20.00
10058;BMP180;5068;51.286;7.518;2023-07-08T06:33:42;99510.00;;;20.10
10058;BMP180;5068;51.286;7.518;2023-07-08T06:35:15;99509.00;;;20.10
10058;BMP180;5068;51.286;7.518;2023-07-08T06:36:49;99510.00;;;20.20
10058;BMP180;5068;51.286;7.518;2023-07-08T06:38:23;99512.00;;;20.30
10058;BMP180;5068;51.286;7.518;2023-07-08T06:39:57;99509.00;;;20.40
10058;BMP180;5068;51.286;7.518;2023-07-08T06:41:30;99511.00;;;20.50
10058;BMP180;5068;51.286;7.518;2023-07-08T06:43:03;99515.00;;;20.60
10058;BMP180;5068;51.286;7.518;2023-07-08T06:44:43;99512.00;;;20.70
10058;BMP180;5068;51.286;7.518;2023-07-08T06:46:25;99508.00;;;20.70
10058;BMP180;5068;51.286;7.518;2023-07-08T06:47:58;99505.00;;;20.80
10058;BMP180;5068;51.286;7.518;2023-07-08T06:49:31;99506.00;;;20.90
10058;BMP180;5068;51.286;7.518;2023-07-08T06:51:04;99506.00;;;21.00
10058;BMP180;5068;51.286;7.518;2023-07-08T06:52:37;99505.00;;;21.10
10058;BMP180;5068;51.286;7.518;2023-07-08T06:54:11;99516.00;;;21.20
10058;BMP180;5068;51.286;7.518;2023-07-08T06:55:45;99506.00;;;21.30
10058;BMP180;5068;51.286;7.518;2023-07-08T06:57:18;99510.00;;;21.40
10058;BMP180;5068;51.286;7.518;2023-07-08T06:58:50;99499.00;;;21.50
10058;BMP180;5068;51.286;7.518;2023-07-08T07:00:24;99502.00;;;21.60
10058;BMP180;5068;51.286;7.518;2023-07-08T07:01:56;99494.00;;;21.70
10058;BMP180;5068;51.286;7.518;2023-07-08T07:03:30;99495.00;;;21.80
10058;BMP180;5068;51.286;7.518;2023-07-08T07:05:05;99498.00;;;21.90
10058;BMP180;5068;51.286;7.518;2023-07-08T07:06:37;99500.00;;;21.90
10058;BMP180;5068;51.286;7.518;2023-07-08T07:08:11;99501.00;;;22.00
10058;BMP180;5068;51.286;7.518;2023-07-08T07:09:44;99503.00;;;22.10
10058;BMP180;5068;51.286;7.518;2023-07-08T07:11:18;99491.00;;;22.20
10058;BMP180;5068;51.286;7.518;2023-07-08T07:12:51;99496.00;;;22.30
10058;BMP180;5068;51.286;7.518;2023-07-08T07:14:24;99496.00;;;22.30
10058;BMP180;5068;51.286;7.518;2023-07-08T07:16:00;99497.00;;;22.40
10058;BMP180;5068;51.286;7.518;2023-07-08T07:17:33;99498.00;;;22.50
10058;BMP180;5068;51.286;7.518;2023-07-08T07:19:07;99497.00;;;22.60
10058;BMP180;5068;51.286;7.518;2023-07-08T07:20:49;99504.00;;;22.70
10058;BMP180;5068;51.286;7.518;2023-07-08T07:22:23;99500.00;;;22.80
10058;BMP180;5068;51.286;7.518;2023-07-08T07:23:56;99511.00;;;22.90
10058;BMP180;5068;51.286;7.518;2023-07-08T07:25:30;99500.00;;;23.00
10058;BMP180;5068;51.286;7.518;2023-07-08T07:27:04;99497.00;;;23.10
10058;BMP180;5068;51.286;7.518;2023-07-08T07:28:38;99505.00;;;23.20
10058;BMP180;5068;51.286;7.518;2023-07-08T07:30:12;99499.00;;;23.30
10058;BMP180;5068;51.286;7.518;2023-07-08T07:31:47;99506.00;;;23.40
10058;BMP180;5068;51.286;7.518;2023-07-08T07:33:20;99506.00;;;23.50
10058;BMP180;5068;51.286;7.518;2023-07-08T07:34:53;99502.00;;;23.70
10058;BMP180;5068;51.286;7.518;2023-07-08T07:36:27;99501.00;;;23.80
10058;BMP180;5068;51.286;7.518;2023-07-08T07:38:16;99499.00;;;24.00
10058;BMP180;5068;51.286;7.518;2023-07-08T07:39:49;99502.00;;;24.10
10058;BMP180;5068;51.286;7.518;2023-07-08T07:41:25;99502.00;;;24.20
10058;BMP180;5068;51.286;7.518;2023-07-08T07:42:58;99509.00;;;24.40
10058;BMP180;5068;51.286;7.518;2023-07-08T07:44:31;99498.00;;;24.50
10058;BMP180;5068;51.286;7.518;2023-07-08T07:46:04;99497.00;;;24.70
10058;BMP180;5068;51.286;7.518;2023-07-08T07:47:38;99493.00;;;24.80
10058;BMP180;5068;51.286;7.518;2023-07-08T07:49:10;99494.00;;;24.90
10058;BMP180;5068;51.286;7.518;2023-07-08T07:50:45;99503.00;;;25.10
10058;BMP180;5068;51.286;7.518;2023-07-08T07:52:18;99498.00;;;25.20
10058;BMP180;5068;51.286;7.518;2023-07-08T07:53:55;99492.00;;;25.40
10058;BMP180;5068;51.286;7.518;2023-07-08T07:55:29;99498.00;;;25.50
10058;BMP180;5068;51.286;7.518;2023-07-08T07:57:04;99497.00;;;25.70
10058;BMP180;5068;51.286;7.518;2023-07-08T07:58:37;99490.00;;;25.80
10058;BMP180;5068;51.286;7.518;2023-07-08T08:00:11;99495.00;;;25.90
10058;BMP180;5068;51.286;7.518;2023-07-08T08:01:47;99497.00;;;26.00
10058;BMP180;5068;51.286;7.518;2023-07-08T08:03:21;99499.00;;;26.20
10058;BMP180;5068;51.286;7.518;2023-07-08T08:04:54;99500.00;;;26.30
10058;BMP180;5068;51.286;7.518;2023-07-08T08:06:27;99501.00;;;26.50
10058;BMP180;5068;51.286;7.518;2023-07-08T08:08:01;99499.00;;;26.60
10058;BMP180;5068;51.286;7.518;2023-07-08T08:09:36;99493.00;;;26.80
10058;BMP180;5068;51.286;7.518;2023-07-08T08:11:09;99500.00;;;26.90
10058;BMP180;5068;51.286;7.518;2023-07-08T08:12:44;99503.00;;;27.10
10058;BMP180;5068;51.286;7.518;2023-07-08T08:14:23;99501.00;;;27.30
10058;BMP180;5068;51.286;7.518;2023-07-08T08:15:57;99506.00;;;27.40
10058;BMP180;5068;51.286;7.518;2023-07-08T08:17:31;99505.00;;;27.60
10058;BMP180;5068;51.286;7.518;2023-07-08T08:19:05;99503.00;;;27.70
10058;BMP180;5068;51.286;7.518;2023-07-08T08:20:40;99504.00;;;27.90
10058;BMP180;5068;51.286;7.518;2023-07-08T08:22:13;99511.00;;;28.00
10058;BMP180;5068;51.286;7.518;2023-07-08T08:23:47;99508.00;;;28.20
10058;BMP180;5068;51.286;7.518;2023-07-08T08:25:23;99515.00;;;28.30
10058;BMP180;5068;51.286;7.518;2023-07-08T08:26:56;99514.00;;;28.40
10058;BMP180;5068;51.286;7.518;2023-07-08T08:28:31;99515.00;;;28.50
10058;BMP180;5068;51.286;7.518;2023-07-08T08:30:06;99517.00;;;28.50
10058;BMP180;5068;51.286;7.518;2023-07-08T08:31:40;99512.00;;;28.60
10058;BMP180;5068;51.286;7.518;2023-07-08T08:33:12;99512.00;;;28.70
10058;BMP180;5068;51.286;7.518;2023-07-08T08:34:46;99516.00;;;28.70
10058;BMP180;5068;51.286;7.518;2023-07-08T08:36:19;99525.00;;;28.80
10058;BMP180;5068;51.286;7.518;2023-07-08T08:37:53;99524.00;;;28.90
10058;BMP180;5068;51.286;7.518;2023-07-08T08:39:27;99524.00;;;29.00
10058;BMP180;5068;51.286;7.518;2023-07-08T08:41:04;99525.00;;;29.00
10058;BMP180;5068;51.286;7.518;2023-07-08T08:42:45;99536.00;;;29.10
10058;BMP180;5068;51.286;7.518;2023-07-08T08:44:27;99528.00;;;29.10
10058;BMP180;5068;51.286;7.518;2023-07-08T08:46:08;99527.00;;;29.20
10058;BMP180;5068;51.286;7.518;2023-07-08T08:47:45;99524.00;;;29.30
10058;BMP180;5068;51.286;7.518;2023-07-08T08:49:27;99528.00;;;29.40
10058;BMP180;5068;51.286;7.518;2023-07-08T08:51:12;99524.00;;;29.50
10058;BMP180;5068;51.286;7.518;2023-07-08T08:52:46;99537.00;;;29.60
10058;BMP180;5068;51.286;7.518;2023-07-08T08:54:19;99535.00;;;29.60
10058;BMP180;5068;51.286;7.518;2023-07-08T08:56:00;99537.00;;;29.70
10058;BMP180;5068;51.286;7.518;2023-07-08T08:57:46;99531.00;;;29.80
10058;BMP180;5068;51.286;7.518;2023-07-08T08:59:36;99527.00;;;29.90
10058;BMP180;5068;51.286;7.518;2023-07-08T09:01:13;99529.00;;;30.00
10058;BMP180;5068;51.286;7.518;2023-07-08T09:02:59;99539.00;;;30.10
10058;BMP180;5068;51.286;7.518;2023-07-08T09:04:38;99539.00;;;30.20
10058;BMP180;5068;51.286;7.518;2023-07-08T09:06:17;99543.00;;;30.20
10058;BMP180;5068;51.286;7.518;2023-07-08T09:08:03;99533.00;;;30.30
10058;BMP180;5068;51.286;7.518;2023-07-08T09:09:46;99539.00;;;30.40
10058;BMP180;5068;51.286;7.518;2023-07-08T09:11:40;99536.00;;;30.50
10058;BMP180;5068;51.286;7.518;2023-07-08T09:13:23;99534.00;;;30.50
10058;BMP180;5068;51.286;7.518;2023-07-08T09:14:59;99542.00;;;30.60
10058;BMP180;5068;51.286;7.518;2023-07-08T09:16:43;99543.00;;;30.60